Time;durP1;ratioP1;P1;durP2;ratioP2;P2;SDS_P1;SDS_P2;PMS_P1;PMS_P2;Temp;Humidity;BMP_temperature;BMP_pressure;BME280_temperature;BME280_humidity;BME280_pressure;Samples;Min_cycle;Max_cycle;Signal;HPM_P1;HPM_P2
2022/06/26 00:01:13;;;;;;;14.48;8.02;;;;;;;;;;4882301;29;20053;-81
2022/06/26 00:03:59;;;;;;;11.68;7.45;;;;;;;;;;4881996;29;20056;-81
2022/06/26 00:06:44;;;;;;;18.38;8.00;;;;;;;;;;4888472;29;20056;-78
2022/06/26 00:09:30;;;;;;;12.32;7.53;;;;;;;;;;4881528;29;20391;-78
2022/06/26 00:12:16;;;;;;;13.57;7.38;;;;;;;;;;4887274;29;20057;-79
2022/06/26 00:15:02;;;;;;;11.52;7.95;;;;;;;;;;4881954;29;20483;-78
2022/06/26 00:17:47;;;;;;;18.80;7.03;;;;;;;;;;4881813;29;20041;-78
2022/06/26 00:20:33;;;;;;;18.27;8.07;;;;;;;;;;4881790;29;20057;-80
2022/06/26 00:23:18;;;;;;;13.98;7.82;;;;;;;;;;4881386;29;20056;-78
2022/06/26 00:26:04;;;;;;;9.93;6.55;;;;;;;;;;4881831;29;20049;-78
2022/06/26 00:28:49;;;;;;;10.25;6.32;;;;;;;;;;4881793;29;20049;-79
2022/06/26 00:31:35;;;;;;;11.35;6.65;;;;;;;;;;4887143;29;20487;-78
2022/06/26 00:34:21;;;;;;;11.93;6.43;;;;;;;;;;4881699;29;20049;-80
2022/06/26 00:37:08;;;;;;;10.30;7.05;;;;;;;;;;4881533;29;20049;-78
2022/06/26 00:39:54;;;;;;;11.77;6.70;;;;;;;;;;4886547;29;20411;-78
2022/06/26 00:42:39;;;;;;;12.90;6.78;;;;;;;;;;4881213;29;20049;-79
2022/06/26 00:45:24;;;;;;;13.65;6.43;;;;;;;;;;4880027;29;20053;-79
2022/06/26 00:48:09;;;;;;;16.27;6.82;;;;;;;;;;4881463;29;20052;-78
2022/06/26 00:50:55;;;;;;;16.02;7.18;;;;;;;;;;4881200;29;20045;-79
2022/06/26 00:53:41;;;;;;;13.38;7.25;;;;;;;;;;4885183;29;20049;-80
2022/06/26 00:56:26;;;;;;;14.32;6.72;;;;;;;;;;4880781;29;20049;-78
2022/06/26 00:59:12;;;;;;;12.15;6.78;;;;;;;;;;4885809;29;20479;-78
2022/06/26 01:01:58;;;;;;;9.05;6.57;;;;;;;;;;4880811;29;20411;-80
2022/06/26 01:04:44;;;;;;;10.50;6.32;;;;;;;;;;4880510;29;20048;-77
2022/06/26 01:07:31;;;;;;;15.32;6.95;;;;;;;;;;4880562;29;20049;-78
2022/06/26 01:10:17;;;;;;;13.63;6.90;;;;;;;;;;4886323;29;20044;-79
2022/06/26 01:13:04;;;;;;;15.75;6.85;;;;;;;;;;4880459;29;20049;-79
2022/06/26 01:15:51;;;;;;;12.90;6.47;;;;;;;;;;4883986;29;20053;-80
2022/06/26 01:18:36;;;;;;;10.88;6.20;;;;;;;;;;4885002;29;20411;-78
2022/06/26 01:21:23;;;;;;;17.27;6.43;;;;;;;;;;4879706;29;20057;-80
2022/06/26 01:24:09;;;;;;;12.75;5.90;;;;;;;;;;4872298;29;20045;-79
2022/06/26 01:26:53;;;;;;;18.05;5.93;;;;;;;;;;4879898;29;20049;-80
2022/06/26 01:29:39;;;;;;;10.50;6.68;;;;;;;;;;4899800;29;20049;-78
2022/06/26 01:32:25;;;;;;;12.27;6.38;;;;;;;;;;4890193;29;20041;-78
2022/06/26 01:35:10;;;;;;;9.98;6.05;;;;;;;;;;4903037;29;20044;-80
2022/06/26 01:38:14;;;;;;;8.95;5.68;;;;;;;;;;4903862;29;20053;-80
2022/06/26 01:41:00;;;;;;;11.65;6.10;;;;;;;;;;4884661;29;20049;-79
2022/06/26 01:43:47;;;;;;;13.02;5.80;;;;;;;;;;4887512;29;20435;-79
2022/06/26 01:46:34;;;;;;;7.03;5.05;;;;;;;;;;4890395;29;20057;-79
2022/06/26 01:49:21;;;;;;;36.65;23.17;;;;;;;;;;4876763;29;20037;-80
2022/06/26 01:52:06;;;;;;;17.13;11.85;;;;;;;;;;4886760;29;20045;-78
2022/06/26 01:54:51;;;;;;;12.90;6.85;;;;;;;;;;4885971;29;20403;-79
2022/06/26 01:57:37;;;;;;;10.32;5.32;;;;;;;;;;4898167;29;20044;-80
2022/06/26 02:00:38;;;;;;;9.13;6.80;;;;;;;;;;4885537;29;20045;-78
2022/06/26 02:03:23;;;;;;;149.48;102.32;;;;;;;;;;4898356;29;20049;-79
2022/06/26 02:06:10;;;;;;;75.03;48.38;;;;;;;;;;4898106;29;20048;-79
2022/06/26 02:08:55;;;;;;;18.95;11.40;;;;;;;;;;4880390;29;20045;-77
2022/06/26 02:14:45;;;;;;;23.02;7.80;;;;;;;;;;4880071;29;20048;-77
2022/06/26 02:17:30;;;;;;;25.35;8.30;;;;;;;;;;4879590;29;20049;-79
2022/06/26 02:20:15;;;;;;;15.02;8.15;;;;;;;;;;4871839;29;20053;-79
2022/06/26 02:23:01;;;;;;;31.48;8.60;;;;;;;;;;4872733;29;20395;-80
2022/06/26 02:25:48;;;;;;;21.10;8.73;;;;;;;;;;4897999;29;20040;-79
2022/06/26 02:28:35;;;;;;;17.60;8.10;;;;;;;;;;4898198;29;20049;-78
2022/06/26 02:31:20;;;;;;;19.80;7.43;;;;;;;;;;4884548;29;20045;-78
2022/06/26 02:34:06;;;;;;;16.73;8.77;;;;;;;;;;4879430;29;20052;-80
2022/06/26 02:36:52;;;;;;;21.67;9.15;;;;;;;;;;4885305;29;20498;-78
2022/06/26 02:39:37;;;;;;;15.57;7.45;;;;;;;;;;4884545;29;20045;-78
2022/06/26 02:42:24;;;;;;;10.45;6.32;;;;;;;;;;4884902;29;20041;-81
2022/06/26 02:45:10;;;;;;;19.30;6.55;;;;;;;;;;4879236;29;20049;-78
2022/06/26 02:47:56;;;;;;;15.32;5.97;;;;;;;;;;4891498;29;20070;-80
2022/06/26 02:50:43;;;;;;;12.70;6.13;;;;;;;;;;4898069;29;20411;-80
2022/06/26 02:53:28;;;;;;;12.88;6.07;;;;;;;;;;4897695;29;20061;-80
2022/06/26 02:56:14;;;;;;;11.23;6.22;;;;;;;;;;4898010;29;20041;-77
2022/06/26 02:59:00;;;;;;;10.60;6.10;;;;;;;;;;4898031;29;20041;-80
2022/06/26 03:01:45;;;;;;;12.57;6.03;;;;;;;;;;4878935;29;20053;-78
2022/06/26 03:04:54;;;;;;;12.25;6.40;;;;;;;;;;4885606;29;20049;-78
2022/06/26 03:07:39;;;;;;;13.82;5.68;;;;;;;;;;4879020;29;20061;-79
2022/06/26 03:10:25;;;;;;;12.18;5.38;;;;;;;;;;4884636;29;20049;-80
2022/06/26 03:13:11;;;;;;;10.43;5.50;;;;;;;;;;4879836;29;20050;-78
2022/06/26 03:15:56;;;;;;;8.65;5.40;;;;;;;;;;4878848;29;20045;-77
2022/06/26 03:18:41;;;;;;;13.23;5.97;;;;;;;;;;4887383;29;20041;-78
2022/06/26 03:21:27;;;;;;;12.32;5.53;;;;;;;;;;4887802;29;20049;-80
2022/06/26 03:24:13;;;;;;;12.13;5.38;;;;;;;;;;4887944;29;20048;-79
2022/06/26 03:26:59;;;;;;;18.05;6.95;;;;;;;;;;4888430;29;20076;-78
2022/06/26 03:29:44;;;;;;;15.00;5.18;;;;;;;;;;4887551;29;20053;-79
2022/06/26 03:32:29;;;;;;;7.07;4.88;;;;;;;;;;4900993;29;20049;-79
2022/06/26 03:35:21;;;;;;;9.98;5.30;;;;;;;;;;4887624;29;20064;-79
2022/06/26 03:38:07;;;;;;;9.57;5.90;;;;;;;;;;4883062;29;20395;-78
2022/06/26 03:40:53;;;;;;;9.80;5.45;;;;;;;;;;4882487;29;20052;-79
2022/06/26 03:43:40;;;;;;;9.60;5.50;;;;;;;;;;4885437;29;20048;-78
2022/06/26 03:46:26;;;;;;;7.28;4.55;;;;;;;;;;4901109;29;20407;-79
2022/06/26 03:49:11;;;;;;;10.55;4.93;;;;;;;;;;4888020;29;20418;-80
2022/06/26 03:51:58;;;;;;;13.13;4.75;;;;;;;;;;4887147;29;20498;-80
2022/06/26 03:54:44;;;;;;;7.30;4.30;;;;;;;;;;4874694;29;20053;-77
2022/06/26 03:57:31;;;;;;;13.20;4.28;;;;;;;;;;4886999;29;20045;-80
2022/06/26 04:00:17;;;;;;;8.55;4.47;;;;;;;;;;4887573;29;20053;-80
2022/06/26 04:03:04;;;;;;;8.00;4.50;;;;;;;;;;4882044;29;20045;-79
2022/06/26 04:05:50;;;;;;;10.27;5.03;;;;;;;;;;4900084;29;20057;-77
2022/06/26 04:08:35;;;;;;;14.93;5.93;;;;;;;;;;4887218;29;20411;-79
2022/06/26 04:11:23;;;;;;;22.88;6.82;;;;;;;;;;4899826;29;20053;-79
2022/06/26 04:14:16;;;;;;;31.90;8.13;;;;;;;;;;4887219;29;20049;-77
2022/06/26 04:17:02;;;;;;;38.22;7.20;;;;;;;;;;4881991;29;20053;-79
2022/06/26 04:19:49;;;;;;;15.00;7.38;;;;;;;;;;4886568;29;20053;-78
2022/06/26 04:22:34;;;;;;;13.38;7.22;;;;;;;;;;4900699;29;20423;-77
2022/06/26 04:25:19;;;;;;;10.50;6.20;;;;;;;;;;4886545;29;20056;-77
2022/06/26 04:28:06;;;;;;;24.08;7.13;;;;;;;;;;4886834;29;20403;-78
2022/06/26 04:30:55;;;;;;;15.65;6.90;;;;;;;;;;4886820;29;20041;-77
2022/06/26 04:33:41;;;;;;;15.50;6.85;;;;;;;;;;4886416;29;20415;-80
2022/06/26 04:36:27;;;;;;;37.42;6.95;;;;;;;;;;4887039;29;20045;-81
2022/06/26 04:39:12;;;;;;;16.10;6.32;;;;;;;;;;4899963;29;20052;-78
2022/06/26 04:42:00;;;;;;;25.27;6.60;;;;;;;;;;4885839;29;20053;-79
2022/06/26 04:44:48;;;;;;;25.90;6.47;;;;;;;;;;4881024;29;20049;-80
2022/06/26 04:47:34;;;;;;;42.15;6.60;;;;;;;;;;4886941;29;20053;-79
2022/06/26 04:50:32;;;;;;;19.95;6.80;;;;;;;;;;4886572;29;20053;-79
2022/06/26 04:53:17;;;;;;;34.78;6.63;;;;;;;;;;4886520;29;20049;-81
2022/06/26 04:56:04;;;;;;;16.20;6.72;;;;;;;;;;4873408;29;20052;-80
2022/06/26 04:58:58;;;;;;;13.13;5.88;;;;;;;;;;4886828;29;20061;-83
2022/06/26 05:01:44;;;;;;;42.22;6.00;;;;;;;;;;4872597;29;20045;-79
2022/06/26 05:04:48;;;;;;;14.48;5.68;;;;;;;;;;4880964;29;20045;-78
2022/06/26 05:07:39;;;;;;;17.88;5.82;;;;;;;;;;4880787;29;20045;-78
2022/06/26 05:10:25;;;;;;;10.20;5.78;;;;;;;;;;4885992;29;20492;-80
2022/06/26 05:13:12;;;;;;;12.85;5.40;;;;;;;;;;4872913;29;20053;-78
2022/06/26 05:16:17;;;;;;;6.97;6.10;;;;;;;;;;4880140;29;20049;-79
2022/06/26 05:19:03;;;;;;;9.27;5.65;;;;;;;;;;4886142;29;20048;-79
2022/06/26 05:21:52;;;;;;;10.98;5.55;;;;;;;;;;4872782;29;20045;-79
2022/06/26 05:24:40;;;;;;;11.18;5.57;;;;;;;;;;4899029;29;20056;-79
2022/06/26 05:27:25;;;;;;;7.40;5.65;;;;;;;;;;4880822;29;20045;-78
2022/06/26 05:30:11;;;;;;;8.10;5.40;;;;;;;;;;4898432;29;20491;-79
2022/06/26 05:32:58;;;;;;;10.15;6.05;;;;;;;;;;4885722;29;20395;-78
2022/06/26 05:35:44;;;;;;;11.10;6.30;;;;;;;;;;4886107;29;20049;-78
2022/06/26 05:38:29;;;;;;;11.32;7.70;;;;;;;;;;4885123;29;20053;-79
2022/06/26 05:41:15;;;;;;;10.02;7.63;;;;;;;;;;4885265;29;20052;-78
2022/06/26 05:44:00;;;;;;;11.75;5.93;;;;;;;;;;4882399;29;20045;-78
2022/06/26 05:46:48;;;;;;;6.55;4.80;;;;;;;;;;4885549;29;20053;-79
2022/06/26 05:49:59;;;;;;;4.72;4.22;;;;;;;;;;4885390;29;20045;-78
2022/06/26 05:52:56;;;;;;;5.80;4.15;;;;;;;;;;4871296;29;20045;-78
2022/06/26 05:56:07;;;;;;;6.57;3.63;;;;;;;;;;4874609;29;20049;-79
2022/06/26 05:59:08;;;;;;;6.57;3.60;;;;;;;;;;4884970;29;20045;-78
2022/06/26 06:02:12;;;;;;;7.05;3.45;;;;;;;;;;4880059;29;20049;-79
2022/06/26 06:04:58;;;;;;;4.57;3.28;;;;;;;;;;4879048;29;20056;-78
2022/06/26 06:07:43;;;;;;;5.65;3.80;;;;;;;;;;4879848;29;20061;-78
2022/06/26 06:10:29;;;;;;;5.70;3.33;;;;;;;;;;4884918;29;20399;-78
2022/06/26 06:13:14;;;;;;;7.15;3.58;;;;;;;;;;4865373;29;20056;-78
2022/06/26 06:16:01;;;;;;;8.00;3.90;;;;;;;;;;4885143;29;20045;-78
2022/06/26 06:18:46;;;;;;;8.60;4.00;;;;;;;;;;4885084;29;20044;-79
2022/06/26 06:21:31;;;;;;;6.80;3.72;;;;;;;;;;4883552;29;20053;-79
2022/06/26 06:24:17;;;;;;;5.10;3.70;;;;;;;;;;4884454;29;20049;-78
2022/06/26 06:27:03;;;;;;;8.25;3.53;;;;;;;;;;4884311;29;20045;-79
2022/06/26 06:29:48;;;;;;;5.55;3.65;;;;;;;;;;4879722;29;20045;-80
2022/06/26 06:32:34;;;;;;;5.03;3.53;;;;;;;;;;4897942;29;20041;-78
2022/06/26 06:35:19;;;;;;;5.80;3.08;;;;;;;;;;4884302;29;20053;-78
2022/06/26 06:38:04;;;;;;;6.63;3.80;;;;;;;;;;4892002;29;20406;-78
2022/06/26 06:40:51;;;;;;;8.07;3.38;;;;;;;;;;4884325;29;20049;-79
2022/06/26 06:43:43;;;;;;;11.15;4.13;;;;;;;;;;4896232;29;20057;-78
2022/06/26 06:46:54;;;;;;;9.50;4.00;;;;;;;;;;4879619;29;20507;-78
2022/06/26 06:49:46;;;;;;;11.90;3.70;;;;;;;;;;4884160;29;20049;-81
2022/06/26 06:52:32;;;;;;;8.60;3.60;;;;;;;;;;4886974;29;20503;-79
2022/06/26 06:55:18;;;;;;;7.47;3.58;;;;;;;;;;4887400;29;20049;-78
2022/06/26 06:58:05;;;;;;;6.75;3.45;;;;;;;;;;4883279;29;20403;-78
2022/06/26 07:00:52;;;;;;;9.07;3.85;;;;;;;;;;4888400;29;20052;-78
2022/06/26 07:03:39;;;;;;;7.78;4.00;;;;;;;;;;4882599;29;20049;-79
2022/06/26 07:06:25;;;;;;;9.55;3.90;;;;;;;;;;4901525;29;20048;-78
2022/06/26 07:09:12;;;;;;;10.68;3.70;;;;;;;;;;4901229;29;20057;-79
2022/06/26 07:11:58;;;;;;;11.48;4.03;;;;;;;;;;4901093;29;20053;-79
2022/06/26 07:14:43;;;;;;;9.75;4.18;;;;;;;;;;4887952;29;20045;-78
2022/06/26 07:17:29;;;;;;;9.70;4.40;;;;;;;;;;4887215;29;20041;-78
2022/06/26 07:20:14;;;;;;;8.05;4.30;;;;;;;;;;4887889;29;20052;-77
2022/06/26 07:23:00;;;;;;;7.45;3.90;;;;;;;;;;4888155;29;20041;-78
2022/06/26 07:25:55;;;;;;;7.55;3.78;;;;;;;;;;4887397;29;20053;-77
2022/06/26 07:28:46;;;;;;;8.38;4.25;;;;;;;;;;4886976;29;20041;-77
2022/06/26 07:31:32;;;;;;;10.98;4.47;;;;;;;;;;4886792;29;20053;-77
2022/06/26 07:34:18;;;;;;;8.48;3.88;;;;;;;;;;4886862;29;20053;-79
2022/06/26 07:37:05;;;;;;;8.23;3.78;;;;;;;;;;4874228;29;20052;-78
2022/06/26 07:39:50;;;;;;;5.45;3.30;;;;;;;;;;4887033;29;20414;-80
2022/06/26 07:42:37;;;;;;;9.32;3.58;;;;;;;;;;4874594;29;20056;-79
2022/06/26 07:45:24;;;;;;;6.30;3.45;;;;;;;;;;4867555;29;20045;-76
2022/06/26 07:48:22;;;;;;;10.13;3.45;;;;;;;;;;4887501;29;20049;-76
2022/06/26 07:51:11;;;;;;;6.63;3.25;;;;;;;;;;4887291;29;20057;-77
2022/06/26 07:53:56;;;;;;;8.73;3.53;;;;;;;;;;4881662;29;20053;-76
2022/06/26 07:56:42;;;;;;;9.68;2.72;;;;;;;;;;4882173;29;20487;-77
2022/06/26 07:59:27;;;;;;;6.20;3.17;;;;;;;;;;4887917;29;20045;-76
2022/06/26 08:02:13;;;;;;;11.52;3.35;;;;;;;;;;4882432;29;20045;-77
2022/06/26 08:04:59;;;;;;;5.45;2.67;;;;;;;;;;4881701;29;20045;-77
2022/06/26 08:07:44;;;;;;;9.13;3.22;;;;;;;;;;4881324;29;20048;-76
2022/06/26 08:10:30;;;;;;;5.78;3.28;;;;;;;;;;4881777;29;20052;-76
2022/06/26 08:13:16;;;;;;;4.90;2.70;;;;;;;;;;4881249;29;20053;-80
2022/06/26 08:16:01;;;;;;;8.10;2.90;;;;;;;;;;4882325;29;20061;-79
2022/06/26 08:18:46;;;;;;;6.32;3.33;;;;;;;;;;4881929;29;20053;-76
2022/06/26 08:24:36;;;;;;;9.05;3.33;;;;;;;;;;4881335;29;20045;-78
2022/06/26 08:27:21;;;;;;;7.43;3.30;;;;;;;;;;4880858;29;20052;-77
2022/06/26 08:30:09;;;;;;;8.18;3.35;;;;;;;;;;4881131;29;20403;-76
2022/06/26 08:32:58;;;;;;;7.22;3.30;;;;;;;;;;4892381;29;20061;-77
2022/06/26 08:35:44;;;;;;;6.35;3.10;;;;;;;;;;4880932;29;20107;-76
2022/06/26 08:38:28;;;;;;;8.90;3.10;;;;;;;;;;4880873;29;20056;-76
2022/06/26 08:41:14;;;;;;;5.25;2.95;;;;;;;;;;4881088;29;20053;-77
2022/06/26 08:44:01;;;;;;;7.50;3.00;;;;;;;;;;4880901;29;20487;-77
2022/06/26 08:46:47;;;;;;;8.10;3.47;;;;;;;;;;4881062;29;20053;-76
2022/06/26 08:49:32;;;;;;;7.72;3.63;;;;;;;;;;4880450;29;20057;-76
2022/06/26 08:52:20;;;;;;;8.65;2.97;;;;;;;;;;4880901;29;20053;-76
2022/06/26 08:55:06;;;;;;;7.00;3.00;;;;;;;;;;4887631;29;20079;-75
2022/06/26 08:57:51;;;;;;;8.15;3.10;;;;;;;;;;4880602;29;20044;-76
2022/06/26 09:00:37;;;;;;;8.73;3.17;;;;;;;;;;4881054;29;20049;-76
2022/06/26 09:03:22;;;;;;;4.55;2.85;;;;;;;;;;4879863;29;20045;-77
2022/06/26 09:06:07;;;;;;;8.32;2.90;;;;;;;;;;4880516;29;20384;-77
2022/06/26 09:08:53;;;;;;;6.75;3.25;;;;;;;;;;4881089;29;20432;-76
2022/06/26 09:11:39;;;;;;;8.07;3.13;;;;;;;;;;4880132;29;20048;-78
2022/06/26 09:14:26;;;;;;;7.13;3.15;;;;;;;;;;4880372;29;20391;-76
2022/06/26 09:17:12;;;;;;;6.80;2.88;;;;;;;;;;4880057;29;20049;-76
2022/06/26 09:19:58;;;;;;;8.20;3.40;;;;;;;;;;4880751;29;20053;-77
2022/06/26 09:22:57;;;;;;;8.32;3.22;;;;;;;;;;4867018;29;20436;-76
2022/06/26 09:25:44;;;;;;;10.65;3.03;;;;;;;;;;4880142;29;20049;-76
2022/06/26 09:28:29;;;;;;;10.15;3.45;;;;;;;;;;4886828;29;20048;-77
2022/06/26 09:31:20;;;;;;;6.63;2.90;;;;;;;;;;4880192;29;20052;-76
2022/06/26 09:34:18;;;;;;;6.53;3.15;;;;;;;;;;4880401;29;20049;-77
2022/06/26 09:37:06;;;;;;;7.20;2.70;;;;;;;;;;4880591;29;20042;-74
2022/06/26 09:40:00;;;;;;;6.07;2.53;;;;;;;;;;4879973;29;20483;-77
2022/06/26 09:42:46;;;;;;;9.15;2.88;;;;;;;;;;4886903;29;20068;-76
2022/06/26 09:45:40;;;;;;;9.43;3.05;;;;;;;;;;4879669;29;20049;-76
2022/06/26 09:48:26;;;;;;;5.72;2.33;;;;;;;;;;4880179;29;20053;-77
2022/06/26 09:51:13;;;;;;;6.63;2.72;;;;;;;;;;4880282;29;20045;-76
2022/06/26 09:53:58;;;;;;;8.05;2.80;;;;;;;;;;4879778;29;20045;-77
2022/06/26 09:56:44;;;;;;;7.28;2.83;;;;;;;;;;4880160;29;20045;-76
2022/06/26 09:59:30;;;;;;;9.30;3.17;;;;;;;;;;4880236;29;20041;-76
2022/06/26 10:08:48;;;;;;;7.65;3.22;;;;;;;;;;4877434;29;20060;-76
2022/06/26 10:11:36;;;;;;;9.63;3.13;;;;;;;;;;4878108;29;20052;-76
2022/06/26 10:14:26;;;;;;;9.10;2.97;;;;;;;;;;4879372;29;20069;-76
2022/06/26 10:17:20;;;;;;;6.35;2.92;;;;;;;;;;4879803;29;20045;-75
2022/06/26 10:20:09;;;;;;;6.90;2.50;;;;;;;;;;4880201;29;20049;-76
2022/06/26 10:22:54;;;;;;;6.78;2.75;;;;;;;;;;4879204;29;20395;-75
2022/06/26 10:25:45;;;;;;;5.57;2.53;;;;;;;;;;4879888;29;20397;-76
2022/06/26 10:28:30;;;;;;;7.47;2.50;;;;;;;;;;4879402;29;20061;-76
2022/06/26 10:31:15;;;;;;;8.25;2.80;;;;;;;;;;4879619;29;20048;-75
2022/06/26 10:34:21;;;;;;;7.47;2.80;;;;;;;;;;4880177;29;20053;-75
2022/06/26 10:37:10;;;;;;;7.63;2.88;;;;;;;;;;4885643;29;20049;-76
2022/06/26 10:39:57;;;;;;;6.13;2.70;;;;;;;;;;4879929;29;20049;-75
2022/06/26 10:42:53;;;;;;;9.30;2.70;;;;;;;;;;4879507;29;20057;-76
2022/06/26 10:45:40;;;;;;;6.15;2.60;;;;;;;;;;4879107;29;20045;-77
2022/06/26 10:48:26;;;;;;;7.28;2.97;;;;;;;;;;4880182;29;20053;-76
2022/06/26 10:51:22;;;;;;;4.55;2.45;;;;;;;;;;4879100;29;20049;-76
2022/06/26 10:54:27;;;;;;;9.98;2.83;;;;;;;;;;4879894;29;20061;-76
2022/06/26 10:57:17;;;;;;;7.88;2.60;;;;;;;;;;4878970;29;20044;-78
2022/06/26 11:00:08;;;;;;;8.05;2.30;;;;;;;;;;4885839;29;20049;-75
2022/06/26 11:02:53;;;;;;;6.55;2.33;;;;;;;;;;4879796;29;20049;-76
2022/06/26 11:05:38;;;;;;;7.45;2.22;;;;;;;;;;4879004;29;20041;-76
2022/06/26 11:08:32;;;;;;;9.23;2.60;;;;;;;;;;4879403;29;20515;-75
2022/06/26 11:11:30;;;;;;;6.95;2.83;;;;;;;;;;4879123;29;20053;-77
2022/06/26 11:14:17;;;;;;;5.00;2.67;;;;;;;;;;4894049;23;20048;-75
2022/06/26 11:17:02;;;;;;;9.02;2.80;;;;;;;;;;4897964;29;20490;-75
2022/06/26 11:22:52;;;;;;;6.10;2.22;;;;;;;;;;4897254;29;20048;-75
2022/06/26 11:25:40;;;;;;;10.15;2.63;;;;;;;;;;4897913;29;20048;-76
2022/06/26 11:28:35;;;;;;;8.07;2.55;;;;;;;;;;4897342;29;20040;-77
2022/06/26 11:31:23;;;;;;;7.18;2.50;;;;;;;;;;4903998;29;20044;-77
2022/06/26 11:34:09;;;;;;;5.38;2.30;;;;;;;;;;4897649;29;20049;-76
2022/06/26 11:36:58;;;;;;;4.97;2.45;;;;;;;;;;4897359;29;20044;-75
2022/06/26 11:39:43;;;;;;;6.28;2.40;;;;;;;;;;4899685;29;20402;-76
2022/06/26 11:42:29;;;;;;;6.03;2.25;;;;;;;;;;4900651;29;20053;-76
2022/06/26 11:45:25;;;;;;;5.35;2.05;;;;;;;;;;4906319;29;20056;-76
2022/06/26 11:48:17;;;;;;;6.97;2.63;;;;;;;;;;4900708;29;20064;-76
2022/06/26 11:51:02;;;;;;;7.72;2.25;;;;;;;;;;4907627;29;20045;-76
2022/06/26 11:53:50;;;;;;;7.55;2.40;;;;;;;;;;4900221;29;20076;-76
2022/06/26 11:56:35;;;;;;;6.47;2.30;;;;;;;;;;4901215;29;20048;-76
2022/06/26 11:59:20;;;;;;;8.98;2.85;;;;;;;;;;4900956;29;20052;-76
2022/06/26 12:02:20;;;;;;;6.50;2.40;;;;;;;;;;4900452;29;20401;-76
2022/06/26 12:05:06;;;;;;;6.07;2.85;;;;;;;;;;4900709;29;20053;-76
2022/06/26 12:07:53;;;;;;;9.18;2.25;;;;;;;;;;4900148;29;20056;-76
2022/06/26 12:10:38;;;;;;;6.05;2.42;;;;;;;;;;4900609;29;20044;-76
2022/06/26 12:13:29;;;;;;;6.13;2.28;;;;;;;;;;4900066;29;20052;-77
2022/06/26 12:16:15;;;;;;;6.07;2.20;;;;;;;;;;4906269;29;20060;-76
2022/06/26 12:19:00;;;;;;;8.35;2.10;;;;;;;;;;4900446;29;20052;-76
2022/06/26 12:21:52;;;;;;;3.97;2.00;;;;;;;;;;4906258;29;20048;-76
2022/06/26 12:24:36;;;;;;;5.53;2.13;;;;;;;;;;4900844;29;20049;-76
2022/06/26 12:27:42;;;;;;;5.35;1.92;;;;;;;;;;4900361;29;20048;-76
2022/06/26 12:30:29;;;;;;;3.67;2.25;;;;;;;;;;4900390;29;20056;-74
2022/06/26 12:33:15;;;;;;;3.05;1.92;;;;;;;;;;4900274;29;20052;-75
2022/06/26 12:36:01;;;;;;;3.35;2.00;;;;;;;;;;4899918;29;20049;-76
2022/06/26 12:38:47;;;;;;;3.05;1.95;;;;;;;;;;4899812;29;20049;-76
2022/06/26 12:41:32;;;;;;;4.95;2.10;;;;;;;;;;4900054;29;20053;-76
2022/06/26 12:44:18;;;;;;;4.50;1.77;;;;;;;;;;4899487;29;20049;-76
2022/06/26 12:47:05;;;;;;;6.80;2.30;;;;;;;;;;4900062;29;20469;-76
2022/06/26 12:49:50;;;;;;;6.65;2.17;;;;;;;;;;4899217;29;20045;-75
2022/06/26 12:52:36;;;;;;;4.75;2.00;;;;;;;;;;4899431;29;20053;-76
2022/06/26 12:55:24;;;;;;;6.95;2.20;;;;;;;;;;4906093;29;20494;-77
2022/06/26 12:58:10;;;;;;;5.75;2.22;;;;;;;;;;4898902;29;20056;-75
2022/06/26 13:00:55;;;;;;;5.22;1.80;;;;;;;;;;4899822;29;20052;-75
2022/06/26 13:03:41;;;;;;;5.72;1.92;;;;;;;;;;4886675;29;20048;-77
2022/06/26 13:06:26;;;;;;;4.40;1.67;;;;;;;;;;4899582;29;20406;-76
2022/06/26 13:09:12;;;;;;;5.88;1.98;;;;;;;;;;4905631;29;20486;-75
2022/06/26 13:11:57;;;;;;;9.05;2.10;;;;;;;;;;4897676;29;20064;-76
2022/06/26 13:14:44;;;;;;;4.55;1.88;;;;;;;;;;4886875;29;20045;-75
2022/06/26 13:17:29;;;;;;;3.45;2.20;;;;;;;;;;4880416;29;20037;-76
2022/06/26 13:20:16;;;;;;;5.32;2.70;;;;;;;;;;4879233;29;20045;-76
2022/06/26 13:23:01;;;;;;;7.50;1.67;;;;;;;;;;4880786;29;20057;-76
2022/06/26 13:25:46;;;;;;;4.93;2.00;;;;;;;;;;4879754;29;20045;-76
2022/06/26 13:28:32;;;;;;;4.43;2.20;;;;;;;;;;4880657;29;20049;-75
2022/06/26 13:31:18;;;;;;;7.20;2.25;;;;;;;;;;4886657;29;20065;-76
2022/06/26 13:34:03;;;;;;;4.82;2.10;;;;;;;;;;4879882;29;20527;-76
2022/06/26 13:36:49;;;;;;;4.40;2.20;;;;;;;;;;4886779;29;20044;-75
2022/06/26 13:39:34;;;;;;;4.63;2.50;;;;;;;;;;4879724;29;20049;-76
2022/06/26 13:42:20;;;;;;;3.20;1.92;;;;;;;;;;4880134;29;20487;-76
2022/06/26 13:45:06;;;;;;;5.72;2.60;;;;;;;;;;4886492;29;20048;-76
2022/06/26 13:47:51;;;;;;;6.13;2.42;;;;;;;;;;4879367;29;20041;-75
2022/06/26 13:50:36;;;;;;;6.15;2.30;;;;;;;;;;4880269;29;20041;-76
2022/06/26 13:53:22;;;;;;;7.10;2.70;;;;;;;;;;4879714;29;20416;-76
2022/06/26 13:56:08;;;;;;;6.90;2.30;;;;;;;;;;4880503;29;20057;-76
2022/06/26 13:58:53;;;;;;;5.00;2.40;;;;;;;;;;4880511;29;20048;-75
2022/06/26 14:01:39;;;;;;;11.27;2.70;;;;;;;;;;4879191;29;20041;-77
2022/06/26 14:04:24;;;;;;;4.68;2.30;;;;;;;;;;4886417;29;20491;-75
2022/06/26 14:07:11;;;;;;;3.55;2.00;;;;;;;;;;4880186;29;20044;-76
2022/06/26 14:09:57;;;;;;;6.65;2.38;;;;;;;;;;4879418;29;20041;-76
2022/06/26 14:12:42;;;;;;;3.97;2.22;;;;;;;;;;4879878;29;20045;-75
2022/06/26 14:15:28;;;;;;;9.38;2.55;;;;;;;;;;4896777;29;20414;-76
2022/06/26 14:18:14;;;;;;;6.10;2.60;;;;;;;;;;4898332;29;20053;-76
2022/06/26 14:21:00;;;;;;;6.78;2.83;;;;;;;;;;4898696;29;20044;-76
2022/06/26 14:26:49;;;;;;;5.38;2.15;;;;;;;;;;4897970;29;20510;-75
2022/06/26 14:29:35;;;;;;;5.15;2.03;;;;;;;;;;4897280;29;20048;-77
2022/06/26 14:32:20;;;;;;;5.40;2.35;;;;;;;;;;4897903;29;20060;-75
2022/06/26 14:35:06;;;;;;;4.32;2.20;;;;;;;;;;4898405;29;20049;-75
2022/06/26 14:37:52;;;;;;;8.30;2.50;;;;;;;;;;4897945;29;20045;-75
2022/06/26 14:40:37;;;;;;;2.50;1.67;;;;;;;;;;4898494;29;20049;-76
2022/06/26 14:43:23;;;;;;;7.85;2.72;;;;;;;;;;4898198;29;20044;-75
2022/06/26 14:46:09;;;;;;;4.53;2.30;;;;;;;;;;4897757;29;20048;-75
2022/06/26 14:48:54;;;;;;;5.63;2.47;;;;;;;;;;4903752;29;20052;-75
2022/06/26 14:51:39;;;;;;;3.55;2.03;;;;;;;;;;4897345;29;20049;-76
2022/06/26 14:54:25;;;;;;;4.80;2.40;;;;;;;;;;4904658;29;20052;-75
2022/06/26 14:57:11;;;;;;;3.50;2.30;;;;;;;;;;4916736;29;20398;-75
2022/06/26 14:59:56;;;;;;;5.53;2.20;;;;;;;;;;4916685;29;20044;-75
2022/06/26 15:02:42;;;;;;;5.63;2.42;;;;;;;;;;4916501;29;20398;-75
2022/06/26 15:05:27;;;;;;;5.22;2.30;;;;;;;;;;4916233;29;20494;-75
2022/06/26 15:08:13;;;;;;;4.07;2.45;;;;;;;;;;4916734;29;20052;-75
2022/06/26 15:10:59;;;;;;;8.25;2.28;;;;;;;;;;4915631;29;20410;-76
2022/06/26 15:13:45;;;;;;;5.00;2.28;;;;;;;;;;4917006;29;20517;-75
2022/06/26 15:16:30;;;;;;;3.75;2.40;;;;;;;;;;4920066;29;20060;-75
2022/06/26 15:19:16;;;;;;;6.28;2.33;;;;;;;;;;4919935;29;20402;-76
2022/06/26 15:22:02;;;;;;;6.32;2.97;;;;;;;;;;4919596;29;20490;-75
2022/06/26 15:24:48;;;;;;;4.13;2.33;;;;;;;;;;4920052;29;20410;-76
2022/06/26 15:27:34;;;;;;;4.40;2.13;;;;;;;;;;4920020;29;20490;-76
2022/06/26 15:30:19;;;;;;;5.05;2.65;;;;;;;;;;4920338;29;20048;-77
2022/06/26 15:33:05;;;;;;;5.00;2.75;;;;;;;;;;4920187;29;20402;-76
2022/06/26 15:35:51;;;;;;;8.55;2.60;;;;;;;;;;4926408;29;20044;-77
2022/06/26 15:38:37;;;;;;;5.82;2.70;;;;;;;;;;4920016;29;20406;-76
2022/06/26 15:41:23;;;;;;;5.35;2.50;;;;;;;;;;4917171;29;20056;-76
2022/06/26 15:44:12;;;;;;;6.60;2.75;;;;;;;;;;4925619;29;20490;-76
2022/06/26 15:46:57;;;;;;;4.50;2.78;;;;;;;;;;4919449;29;20040;-74
2022/06/26 15:49:43;;;;;;;6.95;2.72;;;;;;;;;;4919439;29;20048;-77
2022/06/26 15:52:28;;;;;;;6.68;3.08;;;;;;;;;;4918825;29;20048;-75
2022/06/26 15:55:14;;;;;;;6.93;2.50;;;;;;;;;;4919741;29;20044;-74
2022/06/26 15:58:07;;;;;;;8.07;2.60;;;;;;;;;;4918805;29;20052;-77
2022/06/26 16:01:02;;;;;;;5.15;2.53;;;;;;;;;;4919547;29;20055;-75
2022/06/26 16:03:47;;;;;;;10.10;2.97;;;;;;;;;;4919609;29;20048;-76
2022/06/26 16:06:32;;;;;;;6.80;2.88;;;;;;;;;;4925214;29;20044;-77
2022/06/26 16:09:18;;;;;;;4.30;2.50;;;;;;;;;;4919474;29;20047;-76
2022/06/26 16:12:04;;;;;;;3.97;2.45;;;;;;;;;;4925475;29;20044;-77
2022/06/26 16:14:49;;;;;;;4.70;2.55;;;;;;;;;;4918937;29;20048;-76
2022/06/26 16:17:34;;;;;;;7.45;3.13;;;;;;;;;;4925816;29;20044;-76
2022/06/26 16:20:20;;;;;;;4.45;2.55;;;;;;;;;;4919223;29;20040;-76
2022/06/26 16:26:20;;;;;;;5.57;2.90;;;;;;;;;;4907010;29;20509;-76
2022/06/26 16:29:05;;;;;;;4.43;3.13;;;;;;;;;;4918888;29;20043;-76
2022/06/26 16:31:50;;;;;;;5.70;3.10;;;;;;;;;;4919150;29;20052;-76
2022/06/26 16:34:36;;;;;;;5.80;2.72;;;;;;;;;;4918626;29;20044;-75
2022/06/26 16:37:22;;;;;;;8.95;3.38;;;;;;;;;;4918870;29;20045;-76
2022/06/26 16:40:08;;;;;;;6.05;2.40;;;;;;;;;;4930373;29;20044;-76
2022/06/26 16:42:54;;;;;;;5.68;3.15;;;;;;;;;;4918833;29;20059;-77
2022/06/26 16:45:39;;;;;;;7.45;3.22;;;;;;;;;;4918962;29;20052;-76
2022/06/26 16:48:26;;;;;;;3.60;2.50;;;;;;;;;;4918830;29;20498;-77
2022/06/26 16:51:12;;;;;;;6.72;2.92;;;;;;;;;;4918816;29;20078;-77
2022/06/26 16:53:57;;;;;;;6.80;3.03;;;;;;;;;;4918332;29;20044;-78
2022/06/26 16:56:43;;;;;;;6.50;3.25;;;;;;;;;;4918729;29;20490;-76
2022/06/26 16:59:28;;;;;;;11.70;3.05;;;;;;;;;;4918620;29;20399;-76